createdAt,value
2022-08-13T00:02:54.607Z,96992.88
2022-08-13T00:07:58.539Z,96987.72
2022-08-13T00:13:02.562Z,97000.41
2022-08-13T00:18:11.192Z,96999.44
2022-08-13T00:23:23.752Z,96990.94
2022-08-13T00:28:47.461Z,96994.09
2022-08-13T00:33:50.890Z,96990.38
2022-08-13T00:38:54.197Z,96983.63
2022-08-13T00:44:01.271Z,96976.41
2022-08-13T00:49:05.960Z,96988.66
2022-08-13T00:54:15.730Z,96991.22
2022-08-13T00:59:23.595Z,96983.03
2022-08-13T01:04:28.436Z,96985.78
2022-08-13T01:10:16.208Z,96987.22
2022-08-13T01:14:58.166Z,96982.88
2022-08-13T01:20:07.080Z,96981.94
2022-08-13T01:25:10.759Z,96976.63
2022-08-13T01:30:22.553Z,96967.50
2022-08-13T01:35:26.486Z,96971.50
2022-08-13T01:40:30.446Z,96970.38
2022-08-13T01:45:37.382Z,96967.81
2022-08-13T01:50:44.753Z,96964.78
2022-08-13T01:56:06.182Z,96968.94
2022-08-13T02:01:15.559Z,96961.75
2022-08-13T02:06:31.402Z,96964.78
2022-08-13T02:11:45.832Z,96956.25
2022-08-13T02:16:53.472Z,96957.06
2022-08-13T02:22:02.131Z,96959.63
2022-08-13T02:27:06.689Z,96952.22
2022-08-13T02:32:15.880Z,96953.47
2022-08-13T02:37:45.061Z,96950.09
2022-08-13T02:42:56.136Z,96953.13
2022-08-13T02:48:02.978Z,96951.53
2022-08-13T02:53:06.708Z,96946.56
2022-08-13T02:58:38.560Z,96949.94
2022-08-13T03:03:47.141Z,96945.16
2022-08-13T03:08:51.844Z,96950.16
2022-08-13T03:14:09.474Z,96948.53
2022-08-13T03:19:12.987Z,96953.53
2022-08-13T03:24:29.848Z,96951.78
2022-08-13T03:30:03.340Z,96945.84
2022-08-13T03:34:58.690Z,96950.31
2022-08-13T03:40:04.084Z,96959.63
2022-08-13T03:45:10.249Z,96960.91
2022-08-13T03:50:16.183Z,96957.09
2022-08-13T03:55:19.667Z,96974.09
2022-08-13T04:00:23.505Z,96964.00
2022-08-13T04:05:41.201Z,96971.38
2022-08-13T04:10:56.176Z,96969.13
2022-08-13T04:16:08.609Z,96969.59
2022-08-13T04:21:17.510Z,96975.56
2022-08-13T04:26:31.207Z,96969.75
2022-08-13T04:31:46.886Z,96977.13
2022-08-13T04:36:57.496Z,96984.06
2022-08-13T04:42:01.163Z,96993.41
2022-08-13T04:47:05.675Z,96984.53
2022-08-13T04:52:09.391Z,96990.16
2022-08-13T04:57:13.242Z,96993.66
2022-08-13T05:02:17.474Z,96993.34
2022-08-13T05:07:21.020Z,96995.53
2022-08-13T05:12:29.405Z,97003.66
2022-08-13T05:17:46.467Z,97010.72
2022-08-13T05:26:06.194Z,97021.28
2022-08-13T05:28:14.014Z,96996.91
2022-08-13T05:33:23.242Z,97003.84
2022-08-13T05:38:40.764Z,97007.72
2022-08-13T05:43:44.855Z,97009.16
2022-08-13T05:48:55.276Z,97018.38
2022-08-13T05:56:06.633Z,97021.06
2022-08-13T05:59:23.535Z,97022.66
2022-08-13T06:04:37.555Z,97014.56
2022-08-13T06:09:44.231Z,97019.78
2022-08-13T06:14:53.981Z,97018.69
2022-08-13T06:19:57.948Z,97016.44
2022-08-13T06:25:03.394Z,97008.00
2022-08-13T06:30:07.414Z,97016.00
2022-08-13T06:35:13.316Z,97014.72
2022-08-13T06:40:34.848Z,97017.63
2022-08-13T06:45:42.335Z,97013.63
2022-08-13T06:50:46.930Z,97017.22
2022-08-13T06:56:20.939Z,97012.56
2022-08-13T07:01:21.292Z,97018.25
2022-08-13T07:06:28.870Z,97029.31
2022-08-13T07:11:38.387Z,97033.16
2022-08-13T07:16:46.567Z,97027.06
2022-08-13T07:21:50.128Z,97028.59
2022-08-13T07:26:56.242Z,97032.84
2022-08-13T07:32:04.688Z,97022.00
2022-08-13T07:37:08.884Z,97025.50
2022-08-13T07:42:13.201Z,97020.31
2022-08-13T07:47:23.552Z,97019.16
2022-08-13T07:52:30.727Z,97011.97
2022-08-13T07:57:38.445Z,97015.22
2022-08-13T08:02:58.271Z,97016.25
2022-08-13T08:08:05.678Z,97009.75
2022-08-13T08:13:14.306Z,97013.81
2022-08-13T08:18:37.192Z,97015.44
2022-08-13T08:23:48.556Z,97014.66
2022-08-13T08:28:58.644Z,97003.97
2022-08-13T08:34:02.540Z,97006.66
2022-08-13T08:39:14.866Z,97002.88
2022-08-13T08:44:19.365Z,97005.69
2022-08-13T08:49:26.394Z,97006.03
2022-08-13T08:54:43.029Z,96997.66
2022-08-13T08:59:51.793Z,96996.50
2022-08-13T09:04:59.795Z,96995.72
2022-08-13T09:10:05.408Z,96997.66
2022-08-13T09:15:16.075Z,96994.06
2022-08-13T09:20:24.364Z,96983.78
2022-08-13T09:25:33.568Z,96986.88
2022-08-13T09:30:49.220Z,96978.88
2022-08-13T09:35:54.444Z,96986.47
2022-08-13T09:41:38.397Z,96975.78
2022-08-13T09:46:41.947Z,96971.91
2022-08-13T09:51:56.775Z,96976.03
2022-08-13T09:57:09.335Z,96965.91
2022-08-13T10:02:16.475Z,96972.66
2022-08-13T10:07:21.356Z,96969.59
2022-08-13T10:12:25.005Z,96970.00
2022-08-13T10:18:00.899Z,96965.94
2022-08-13T10:23:08.421Z,96970.53
2022-08-13T10:28:29.839Z,96948.69
2022-08-13T10:33:37.353Z,96956.75
2022-08-13T10:38:53.309Z,96956.38
2022-08-13T10:43:59.501Z,96962.94
2022-08-13T10:49:04.721Z,96948.53
2022-08-13T10:54:08.091Z,96945.53
2022-08-13T10:59:25.188Z,96959.09
2022-08-13T11:04:32.176Z,96944.59
2022-08-13T11:09:36.945Z,96938.81
2022-08-13T11:14:42.038Z,96944.69
2022-08-13T11:19:49.719Z,96931.56
2022-08-13T11:25:18.265Z,96932.63
2022-08-13T11:30:34.923Z,96923.94
2022-08-13T11:35:40.911Z,96933.69
2022-08-13T11:40:57.531Z,96923.19
2022-08-13T11:46:01.564Z,96929.97
2022-08-13T11:51:05.938Z,96929.63
2022-08-13T11:56:10.544Z,96927.41
2022-08-13T12:01:17.336Z,96917.91
2022-08-13T12:06:22.697Z,96921.72
2022-08-13T12:12:08.288Z,96926.06
2022-08-13T12:16:56.454Z,96923.88
2022-08-13T12:22:00.291Z,96921.28
2022-08-13T12:27:05.127Z,96912.19
2022-08-13T12:32:12.114Z,96907.66
2022-08-13T12:37:22.643Z,96920.25
2022-08-13T12:42:28.802Z,96921.16
2022-08-13T12:47:32.521Z,96916.63
2022-08-13T12:52:39.541Z,96909.59
2022-08-13T12:58:02.469Z,96913.16
2022-08-13T13:03:12.970Z,96914.56
2022-08-13T13:08:29.681Z,96917.06
2022-08-13T13:13:55.081Z,96915.47
2022-08-13T13:19:03.171Z,96914.50
2022-08-13T13:24:16.871Z,96908.94
2022-08-13T13:29:22.048Z,96907.88
2022-08-13T13:34:28.918Z,96904.69
2022-08-13T13:39:43.369Z,96903.09
2022-08-13T13:44:52.525Z,96902.50
2022-08-13T13:49:56.426Z,96904.81
2022-08-13T13:55:00.571Z,96903.06
2022-08-13T14:00:04.739Z,96900.50
2022-08-13T14:05:18.846Z,96911.06
2022-08-13T14:10:22.916Z,96903.06
2022-08-13T14:15:30.143Z,96900.44
2022-08-13T14:20:39.183Z,96898.63
2022-08-13T14:25:55.152Z,96899.75
2022-08-13T14:31:02.329Z,96893.31
2022-08-13T14:36:06.186Z,96885.50
2022-08-13T14:41:17.245Z,96898.09
2022-08-13T14:46:24.691Z,96898.91
2022-08-13T14:51:52.655Z,96898.81
2022-08-13T14:56:56.768Z,96898.47
2022-08-13T15:02:20.168Z,96896.19
2022-08-13T15:07:24.671Z,96894.13
2022-08-13T15:12:29.072Z,96886.81
2022-08-13T15:17:37.527Z,96891.41
2022-08-13T15:22:42.459Z,96888.19
2022-08-13T15:27:51.677Z,96889.53
2022-08-13T15:32:59.583Z,96893.56
2022-08-13T15:38:06.190Z,96883.16
2022-08-13T15:43:17.927Z,96900.50
2022-08-13T15:48:39.924Z,96894.75
2022-08-13T15:53:44.030Z,96892.50
2022-08-13T15:58:50.041Z,96893.06
2022-08-13T16:03:56.529Z,96895.06
2022-08-13T16:09:04.655Z,96889.00
2022-08-13T16:14:18.430Z,96894.16
2022-08-13T16:19:52.366Z,96891.66
2022-08-13T16:24:51.687Z,96895.63
2022-08-13T16:29:55.874Z,96898.78
2022-08-13T16:35:00.186Z,96899.66
2022-08-13T16:40:05.443Z,96896.41
2022-08-13T16:45:16.649Z,96900.34
2022-08-13T16:50:21.559Z,96899.75
2022-08-13T16:55:31.700Z,96896.34
2022-08-13T17:00:41.467Z,96897.81
2022-08-13T17:05:52.971Z,96903.63
2022-08-13T17:10:56.770Z,96912.34
2022-08-13T17:16:02.746Z,96928.16
2022-08-13T17:21:48.563Z,96922.28
2022-08-13T17:26:33.414Z,96919.25
2022-08-13T17:31:38.659Z,96926.66
2022-08-13T17:37:05.082Z,96934.56
2022-08-13T17:44:02.564Z,96939.53
2022-08-13T17:47:59.775Z,96939.19
2022-08-13T17:52:56.114Z,96945.97
2022-08-13T17:58:01.616Z,96948.34
2022-08-13T18:03:05.371Z,96955.13
2022-08-13T18:08:09.123Z,96970.06
2022-08-13T18:13:30.619Z,96961.53
2022-08-13T18:18:47.757Z,96961.56
2022-08-13T18:23:55.881Z,96967.56
2022-08-13T18:28:59.718Z,96962.28
2022-08-13T18:34:18.285Z,96968.84
2022-08-13T18:39:25.110Z,96970.13
2022-08-13T18:44:36.132Z,96972.19
2022-08-13T18:49:39.901Z,96973.66
2022-08-13T18:54:55.214Z,96980.13
2022-08-13T19:00:00.978Z,96975.63
2022-08-13T19:05:22.634Z,96974.19
2022-08-13T19:10:32.185Z,96977.13
2022-08-13T19:15:36.494Z,96974.38
2022-08-13T19:20:40.249Z,96971.34
2022-08-13T19:25:44.484Z,96980.19
2022-08-13T19:30:59.524Z,96967.31
2022-08-13T19:36:17.586Z,96979.72
2022-08-13T19:41:33.929Z,96978.75
2022-08-13T19:46:38.586Z,96986.69
2022-08-13T19:51:48.787Z,96978.50
2022-08-13T19:56:53.820Z,96979.00
2022-08-13T20:01:57.084Z,96978.78
2022-08-13T20:07:01.129Z,96980.13
2022-08-13T20:12:09.072Z,96977.38
2022-08-13T20:17:13.336Z,96974.66
2022-08-13T20:22:19.196Z,96971.72
2022-08-13T20:27:50.480Z,96972.06
2022-08-13T20:32:55.317Z,96965.47
2022-08-13T20:38:00.345Z,96965.47
2022-08-13T20:43:06.639Z,96960.97
2022-08-13T20:48:30.472Z,96963.09
2022-08-13T20:53:48.373Z,96959.56
2022-08-13T21:00:52.577Z,96956.53
2022-08-13T21:04:15.900Z,96958.00
2022-08-13T21:09:21.462Z,96963.31
2022-08-13T21:14:30.209Z,96956.56
2022-08-13T21:19:36.519Z,96962.84
2022-08-13T21:24:40.871Z,96961.03
2022-08-13T21:29:44.339Z,96949.31
2022-08-13T21:34:49.971Z,96948.97
2022-08-13T21:39:54.653Z,96940.78
2022-08-13T21:45:00.450Z,96933.25
2022-08-13T21:50:06.965Z,96931.19
2022-08-13T21:55:14.149Z,96927.16
2022-08-13T22:00:28.374Z,96923.16
2022-08-13T22:05:59.298Z,96919.28
2022-08-13T22:10:56.791Z,96923.28
2022-08-13T22:16:01.469Z,96924.25
2022-08-13T22:21:08.312Z,96929.53
2022-08-13T22:26:15.998Z,96923.41
2022-08-13T22:31:20.558Z,96917.13
2022-08-13T22:36:31.659Z,96925.34
2022-08-13T22:41:40.812Z,96931.94
2022-08-13T22:46:45.369Z,96919.06
2022-08-13T22:51:51.720Z,96926.47
2022-08-13T22:56:55.221Z,96914.41
2022-08-13T23:01:58.588Z,96915.72
2022-08-13T23:07:02.987Z,96915.72
2022-08-13T23:12:09.166Z,96913.28
2022-08-13T23:17:16.118Z,96915.22
2022-08-13T23:22:29.732Z,96913.28
2022-08-13T23:27:35.567Z,96919.25
2022-08-13T23:32:39.503Z,96913.91
2022-08-13T23:37:47.553Z,96909.91
2022-08-13T23:42:51.175Z,96919.88
2022-08-13T23:47:57.793Z,96915.53
2022-08-13T23:53:02.461Z,96908.47
2022-08-13T23:58:05.868Z,96910.53
